createdAt,value
2022-11-06T00:05:44.027Z,1.23
2022-11-06T00:21:59.556Z,2.78
2022-11-06T00:27:54.760Z,1.33
2022-11-06T00:30:21.254Z,1.42
2022-11-06T00:32:47.810Z,1.30
2022-11-06T00:35:14.253Z,1.15
2022-11-06T00:37:40.638Z,2.08
2022-11-06T00:40:07.196Z,1.55
2022-11-06T00:42:33.719Z,1.35
2022-11-06T00:45:00.114Z,1.33
2022-11-06T00:47:26.494Z,1.58
2022-11-06T00:49:52.871Z,1.30
2022-11-06T00:52:19.206Z,1.20
2022-11-06T00:54:45.556Z,1.30
2022-11-06T00:57:11.872Z,1.42
2022-11-06T00:59:38.271Z,1.45
2022-11-06T01:02:04.698Z,1.92
2022-11-06T01:04:31.166Z,1.85
2022-11-06T01:06:57.551Z,1.45
2022-11-06T01:09:25.583Z,1.58
2022-11-06T01:14:41.749Z,1.30
2022-11-06T01:17:08.382Z,1.38
2022-11-06T01:19:34.794Z,1.85
2022-11-06T01:22:01.135Z,1.58
2022-11-06T01:24:28.319Z,1.60
2022-11-06T01:29:43.256Z,1.60
2022-11-06T01:32:09.927Z,1.45
2022-11-06T01:34:36.323Z,1.30
2022-11-06T01:37:02.765Z,1.50
2022-11-06T01:39:29.132Z,1.33
2022-11-06T01:41:55.713Z,1.60
2022-11-06T01:44:40.888Z,1.48
2022-11-06T01:47:22.523Z,1.60
2022-11-06T01:49:49.795Z,2.13
2022-11-06T01:52:16.339Z,1.50
2022-11-06T01:54:43.882Z,1.40
2022-11-06T01:57:11.047Z,1.92
2022-11-06T01:59:38.446Z,1.23
2022-11-06T02:02:04.954Z,1.35
2022-11-06T02:04:34.513Z,1.63
2022-11-06T02:07:01.106Z,1.70
2022-11-06T02:09:28.258Z,1.60
2022-11-06T02:11:58.638Z,1.52
2022-11-06T02:14:34.591Z,2.10
2022-11-06T02:17:07.448Z,1.23
2022-11-06T02:19:40.326Z,1.50
2022-11-06T02:22:21.554Z,1.50
2022-11-06T02:24:55.340Z,1.67
2022-11-06T02:27:23.183Z,1.88
2022-11-06T02:30:15.585Z,1.40
2022-11-06T02:32:41.958Z,1.60
2022-11-06T02:35:23.733Z,1.30
2022-11-06T02:37:53.801Z,2.30
2022-11-06T02:40:23.204Z,1.33
2022-11-06T02:42:51.733Z,1.92
2022-11-06T02:45:18.896Z,1.85
2022-11-06T02:47:47.024Z,1.38
2022-11-06T02:50:17.468Z,1.27
2022-11-06T02:53:04.131Z,1.77
2022-11-06T02:55:34.093Z,1.50
2022-11-06T02:58:05.883Z,1.60
2022-11-06T03:00:33.584Z,1.30
2022-11-06T03:03:01.487Z,1.50
2022-11-06T03:05:31.811Z,1.40
2022-11-06T03:08:11.224Z,1.55
2022-11-06T03:10:45.416Z,1.50
2022-11-06T03:13:17.400Z,1.98
2022-11-06T03:15:49.926Z,1.38
2022-11-06T03:18:30.037Z,2.00
2022-11-06T03:21:00.050Z,3.10
2022-11-06T03:23:35.591Z,2.00
2022-11-06T03:26:14.025Z,3.28
2022-11-06T03:28:46.543Z,1.35
2022-11-06T03:31:15.577Z,1.80
2022-11-06T03:33:53.520Z,1.60
2022-11-06T03:36:25.252Z,1.50
2022-11-06T03:38:54.218Z,1.50
2022-11-06T03:41:30.572Z,1.85
2022-11-06T03:43:57.945Z,1.77
2022-11-06T03:46:26.099Z,2.08
2022-11-06T03:48:54.360Z,3.55
2022-11-06T03:51:30.109Z,2.20
2022-11-06T03:54:02.379Z,1.92
2022-11-06T03:56:32.670Z,2.10
2022-11-06T03:59:01.797Z,2.53
2022-11-06T04:01:29.719Z,2.15
2022-11-06T04:03:58.374Z,4.03
2022-11-06T04:06:34.550Z,2.50
2022-11-06T04:09:21.935Z,2.15
2022-11-06T04:12:09.874Z,2.25
2022-11-06T04:14:38.261Z,2.33
2022-11-06T04:17:06.617Z,2.33
2022-11-06T04:19:32.991Z,2.30
2022-11-06T04:22:18.005Z,2.30
2022-11-06T04:25:06.322Z,3.00
2022-11-06T04:27:41.599Z,2.78
2022-11-06T04:30:09.653Z,2.60
2022-11-06T04:32:59.673Z,3.22
2022-11-06T04:35:26.542Z,3.05
2022-11-06T04:38:00.814Z,3.20
2022-11-06T04:40:30.245Z,2.92
2022-11-06T04:43:00.575Z,3.58
2022-11-06T04:45:32.551Z,3.28
2022-11-06T04:47:59.531Z,3.60
2022-11-06T04:50:26.951Z,4.88
2022-11-06T04:52:53.808Z,3.58
2022-11-06T04:55:20.853Z,4.10
2022-11-06T04:57:47.213Z,3.25
2022-11-06T05:00:14.608Z,3.55
2022-11-06T05:02:41.303Z,3.65
2022-11-06T05:05:09.876Z,3.67
2022-11-06T05:07:36.212Z,3.78
2022-11-06T05:10:02.588Z,5.50
2022-11-06T05:12:28.993Z,4.43
2022-11-06T05:14:55.320Z,4.10
2022-11-06T05:17:21.642Z,6.03
2022-11-06T05:19:47.979Z,5.03
2022-11-06T05:22:33.033Z,4.75
2022-11-06T05:24:59.342Z,5.38
2022-11-06T05:27:25.919Z,5.07
2022-11-06T05:29:52.259Z,5.40
2022-11-06T05:32:18.616Z,6.00
2022-11-06T05:34:45.963Z,6.32
2022-11-06T05:37:12.411Z,5.93
2022-11-06T05:39:41.842Z,6.05
2022-11-06T05:42:08.525Z,6.45
2022-11-06T05:44:34.926Z,6.07
2022-11-06T05:47:01.255Z,6.70
2022-11-06T05:49:27.576Z,6.03
2022-11-06T05:51:53.886Z,6.18
2022-11-06T05:54:20.234Z,5.40
2022-11-06T05:56:46.551Z,5.93
2022-11-06T05:59:13.077Z,5.80
2022-11-06T06:01:39.608Z,6.05
2022-11-06T06:04:06.024Z,5.82
2022-11-06T06:06:32.586Z,5.38
2022-11-06T06:08:59.107Z,6.22
2022-11-06T06:11:25.573Z,5.68
2022-11-06T06:13:51.908Z,6.18
2022-11-06T06:16:18.324Z,5.10
2022-11-06T06:18:44.742Z,5.45
2022-11-06T06:21:11.114Z,5.10
2022-11-06T06:23:37.481Z,5.28
2022-11-06T06:26:05.064Z,5.00
2022-11-06T06:28:32.165Z,5.40
2022-11-06T06:31:01.479Z,5.30
2022-11-06T06:33:28.076Z,5.30
2022-11-06T06:35:54.402Z,5.50
2022-11-06T06:38:20.791Z,5.20
2022-11-06T06:40:47.343Z,4.90
2022-11-06T06:43:13.706Z,5.53
2022-11-06T06:45:40.038Z,4.75
2022-11-06T06:48:06.744Z,5.32
2022-11-06T06:50:33.163Z,5.30
2022-11-06T06:52:59.693Z,4.30
2022-11-06T06:55:26.396Z,4.88
2022-11-06T06:57:59.199Z,4.65
2022-11-06T07:02:52.246Z,3.42
2022-11-06T07:05:19.002Z,3.65
2022-11-06T07:07:45.308Z,3.58
2022-11-06T07:10:11.828Z,3.30
2022-11-06T07:12:40.477Z,2.80
2022-11-06T07:15:07.308Z,2.95
2022-11-06T07:17:33.649Z,2.83
2022-11-06T07:19:59.977Z,2.50
2022-11-06T07:22:33.723Z,2.70
2022-11-06T07:25:03.115Z,2.05
2022-11-06T07:27:29.524Z,2.20
2022-11-06T07:29:55.864Z,2.20
2022-11-06T07:32:22.194Z,2.08
2022-11-06T07:34:48.581Z,1.58
2022-11-06T07:37:14.920Z,1.60
2022-11-06T07:39:41.335Z,1.35
2022-11-06T07:42:07.710Z,1.48
2022-11-06T07:44:34.113Z,1.60
2022-11-06T07:47:00.575Z,1.75
2022-11-06T07:49:26.932Z,1.20
2022-11-06T07:51:53.302Z,1.00
2022-11-06T07:54:19.642Z,1.10
2022-11-06T07:56:46.098Z,1.10
2022-11-06T07:59:12.504Z,0.90
2022-11-06T08:01:38.916Z,0.82
2022-11-06T08:04:05.372Z,0.85
2022-11-06T08:06:31.699Z,0.73
2022-11-06T08:08:59.228Z,0.68
2022-11-06T08:11:28.763Z,0.70
2022-11-06T08:13:55.176Z,0.85
2022-11-06T08:16:21.750Z,0.80
2022-11-06T08:18:48.084Z,0.60
2022-11-06T08:21:14.572Z,0.70
2022-11-06T08:23:40.943Z,0.73
2022-11-06T08:26:07.492Z,0.68
2022-11-06T08:28:33.905Z,0.50
2022-11-06T08:31:09.521Z,0.70
2022-11-06T08:33:36.648Z,0.60
2022-11-06T08:36:03.732Z,0.60
2022-11-06T08:38:30.082Z,0.60
2022-11-06T08:40:56.453Z,0.60
2022-11-06T08:43:26.657Z,0.43
2022-11-06T08:45:53.253Z,0.90
2022-11-06T08:48:19.560Z,0.70
2022-11-06T08:50:45.883Z,0.60
2022-11-06T08:53:12.668Z,0.50
2022-11-06T08:55:39.485Z,0.52
2022-11-06T08:58:06.579Z,0.60
2022-11-06T09:00:33.372Z,0.60
2022-11-06T09:03:02.426Z,0.60
2022-11-06T09:05:29.680Z,0.70
2022-11-06T09:07:56.307Z,0.50
2022-11-06T09:10:22.805Z,0.40
2022-11-06T09:12:49.311Z,0.60
2022-11-06T09:15:15.667Z,0.50
2022-11-06T09:17:42.774Z,0.70
2022-11-06T09:20:09.346Z,0.52
2022-11-06T09:22:35.664Z,0.52
2022-11-06T09:25:04.085Z,0.65
2022-11-06T09:27:31.637Z,0.40
2022-11-06T09:29:57.966Z,0.70
2022-11-06T09:32:24.683Z,0.85
2022-11-06T09:34:51.050Z,0.68
2022-11-06T09:37:17.398Z,0.70
2022-11-06T09:39:43.932Z,0.63
2022-11-06T09:42:23.390Z,0.88
2022-11-06T09:44:49.852Z,1.15
2022-11-06T09:47:18.106Z,1.00
2022-11-06T09:49:48.058Z,0.93
2022-11-06T09:52:25.666Z,1.38
2022-11-06T09:54:56.715Z,1.75
2022-11-06T09:57:35.409Z,1.40
2022-11-06T10:00:04.144Z,1.80
2022-11-06T10:02:37.981Z,1.25
2022-11-06T10:05:07.609Z,1.83
2022-11-06T10:07:39.312Z,1.90
2022-11-06T10:10:08.079Z,2.15
2022-11-06T10:12:40.056Z,1.92
2022-11-06T10:15:12.536Z,1.95
2022-11-06T10:17:54.640Z,2.28
2022-11-06T10:20:27.437Z,2.03
2022-11-06T10:23:02.512Z,1.60
2022-11-06T10:25:43.931Z,1.83
2022-11-06T10:28:13.442Z,2.00
2022-11-06T10:30:43.011Z,2.00
2022-11-06T10:33:23.556Z,1.90
2022-11-06T10:36:10.153Z,2.03
2022-11-06T10:38:39.027Z,1.77
2022-11-06T10:41:05.417Z,2.05
2022-11-06T10:43:37.902Z,2.00
2022-11-06T10:46:07.384Z,2.20
2022-11-06T10:48:41.318Z,2.00
2022-11-06T10:51:14.280Z,2.28
2022-11-06T10:53:52.848Z,2.15
2022-11-06T10:56:34.159Z,1.90
2022-11-06T10:59:00.532Z,1.50
2022-11-06T11:01:27.039Z,1.83
2022-11-06T11:03:53.799Z,1.73
2022-11-06T11:06:20.188Z,1.85
2022-11-06T11:08:51.124Z,1.55
2022-11-06T11:13:48.947Z,2.42
2022-11-06T11:18:48.389Z,1.35
2022-11-06T11:21:27.835Z,1.58
2022-11-06T11:24:00.211Z,3.92
2022-11-06T11:26:28.084Z,1.40
2022-11-06T11:28:55.666Z,1.60
2022-11-06T11:31:28.637Z,3.00
2022-11-06T11:33:56.787Z,1.48
2022-11-06T11:36:23.339Z,1.27
2022-11-06T11:38:49.695Z,1.42
2022-11-06T11:41:19.036Z,1.30
2022-11-06T11:43:56.333Z,1.58
2022-11-06T11:46:22.795Z,1.05
2022-11-06T11:48:49.156Z,1.55
2022-11-06T11:51:35.716Z,1.40
2022-11-06T11:54:07.202Z,1.38
2022-11-06T11:57:02.834Z,1.45
2022-11-06T11:59:40.365Z,1.25
2022-11-06T12:02:16.050Z,1.05
2022-11-06T12:04:43.838Z,1.02
2022-11-06T12:07:21.852Z,1.50
2022-11-06T12:09:48.287Z,1.15
2022-11-06T12:12:31.160Z,1.02
2022-11-06T12:15:06.922Z,1.20
2022-11-06T12:17:34.712Z,1.08
2022-11-06T12:20:02.544Z,1.33
2022-11-06T12:22:32.856Z,1.13
2022-11-06T12:25:11.369Z,1.40
2022-11-06T12:27:41.174Z,1.33
2022-11-06T12:30:08.231Z,1.35
2022-11-06T12:32:37.362Z,1.00
2022-11-06T12:35:07.233Z,1.67
2022-11-06T12:37:39.686Z,1.13
2022-11-06T12:40:25.394Z,1.10
2022-11-06T12:42:58.286Z,0.70
2022-11-06T12:45:29.157Z,1.20
2022-11-06T12:48:01.489Z,0.90
2022-11-06T12:50:41.496Z,1.13
2022-11-06T12:53:19.284Z,0.60
2022-11-06T12:55:45.591Z,0.77
2022-11-06T12:58:35.181Z,1.10
2022-11-06T13:01:07.547Z,1.35
2022-11-06T13:03:42.853Z,1.00
2022-11-06T13:06:18.084Z,0.90
2022-11-06T13:08:51.158Z,1.00
2022-11-06T13:11:26.684Z,1.05
2022-11-06T13:14:05.379Z,0.95
2022-11-06T13:16:55.429Z,1.38
2022-11-06T13:19:27.754Z,1.10
2022-11-06T13:21:57.118Z,1.15
2022-11-06T13:24:28.890Z,0.90
2022-11-06T13:27:03.222Z,0.98
2022-11-06T13:29:30.241Z,0.77
2022-11-06T13:32:01.638Z,1.00
2022-11-06T13:34:30.228Z,1.20
2022-11-06T13:36:57.319Z,1.23
2022-11-06T13:39:35.560Z,1.08
2022-11-06T13:42:02.499Z,1.35
2022-11-06T13:44:29.731Z,1.02
2022-11-06T13:47:08.897Z,1.33
2022-11-06T13:49:46.592Z,1.00
2022-11-06T13:52:20.386Z,0.80
2022-11-06T13:54:52.871Z,0.75
2022-11-06T13:57:37.543Z,1.15
2022-11-06T14:00:15.802Z,1.27
2022-11-06T14:03:00.629Z,1.23
2022-11-06T14:05:43.904Z,1.13
2022-11-06T14:08:28.831Z,1.13
2022-11-06T14:10:57.444Z,1.30
2022-11-06T14:13:25.096Z,1.38
2022-11-06T14:15:58.528Z,1.23
2022-11-06T14:18:25.024Z,2.00
2022-11-06T14:21:11.321Z,1.13
2022-11-06T14:23:38.007Z,1.40
2022-11-06T14:26:13.473Z,1.40
2022-11-06T14:28:40.915Z,1.00
2022-11-06T14:31:12.694Z,1.48
2022-11-06T14:33:49.436Z,1.38
2022-11-06T14:36:24.695Z,1.50
2022-11-06T14:38:51.593Z,1.50
2022-11-06T14:41:36.398Z,1.13
2022-11-06T14:44:06.420Z,1.38
2022-11-06T14:46:32.911Z,1.60
2022-11-06T14:49:08.126Z,1.60
2022-11-06T14:51:34.506Z,1.50
2022-11-06T14:54:04.984Z,1.92
2022-11-06T14:56:32.797Z,1.38
2022-11-06T14:59:07.697Z,1.70
2022-11-06T15:01:35.459Z,1.48
2022-11-06T15:04:06.554Z,1.63
2022-11-06T15:09:11.624Z,2.38
2022-11-06T15:11:47.519Z,2.03
2022-11-06T15:14:14.383Z,2.20
2022-11-06T15:16:45.246Z,2.03
2022-11-06T15:19:27.046Z,3.30
2022-11-06T15:22:08.269Z,2.95
2022-11-06T15:24:38.393Z,2.90
2022-11-06T15:27:07.952Z,2.95
2022-11-06T15:29:36.939Z,3.38
2022-11-06T15:32:05.355Z,2.78
2022-11-06T15:34:31.676Z,2.25
2022-11-06T15:37:09.789Z,2.20
2022-11-06T15:39:43.564Z,1.85
2022-11-06T15:42:13.324Z,2.83
2022-11-06T15:44:40.646Z,2.78
2022-11-06T15:47:19.999Z,2.15
2022-11-06T15:49:46.365Z,2.40
2022-11-06T15:52:16.778Z,2.55
2022-11-06T15:54:43.947Z,2.67
2022-11-06T15:57:10.644Z,5.00
2022-11-06T15:59:37.011Z,2.92
2022-11-06T16:02:14.202Z,2.53
2022-11-06T16:04:41.226Z,2.63
2022-11-06T16:07:10.985Z,2.50
2022-11-06T16:09:39.877Z,2.20
2022-11-06T16:12:06.439Z,2.40
2022-11-06T16:14:38.074Z,5.45
2022-11-06T16:17:18.487Z,2.70
2022-11-06T16:19:46.031Z,3.95
2022-11-06T16:22:19.764Z,2.45
2022-11-06T16:24:48.830Z,2.65
2022-11-06T16:27:15.476Z,4.07
2022-11-06T16:29:46.359Z,3.53
2022-11-06T16:32:18.124Z,5.10
2022-11-06T16:34:46.097Z,5.40
2022-11-06T16:37:15.430Z,3.47
2022-11-06T16:39:49.341Z,3.17
2022-11-06T16:42:22.184Z,2.92
2022-11-06T16:44:49.617Z,3.60
2022-11-06T16:47:17.941Z,3.03
2022-11-06T16:49:57.278Z,3.50
2022-11-06T16:52:29.619Z,5.32
2022-11-06T16:55:00.852Z,3.40
2022-11-06T16:57:29.334Z,3.75
2022-11-06T17:00:09.066Z,3.13
2022-11-06T17:02:37.002Z,4.05
2022-11-06T17:05:17.351Z,3.22
2022-11-06T17:07:44.683Z,3.75
2022-11-06T17:10:29.824Z,3.95
2022-11-06T17:12:56.172Z,3.17
2022-11-06T17:15:22.564Z,4.20
2022-11-06T17:17:49.317Z,3.47
2022-11-06T17:20:16.671Z,4.20
2022-11-06T17:22:43.246Z,3.97
2022-11-06T17:25:09.661Z,4.05
2022-11-06T17:27:36.070Z,3.58
2022-11-06T17:30:02.497Z,4.30
2022-11-06T17:32:28.930Z,3.10
2022-11-06T17:34:55.443Z,3.85
2022-11-06T17:37:23.868Z,3.50
2022-11-06T17:39:50.228Z,4.22
2022-11-06T17:42:16.560Z,3.33
2022-11-06T17:44:43.029Z,4.22
2022-11-06T17:47:09.407Z,3.80
2022-11-06T17:49:35.743Z,3.75
2022-11-06T17:52:02.053Z,3.42
2022-11-06T17:54:32.078Z,3.58
2022-11-06T17:57:01.398Z,3.50
2022-11-06T17:59:27.943Z,4.72
2022-11-06T18:01:54.852Z,4.25
2022-11-06T18:04:22.191Z,3.58
2022-11-06T18:06:49.200Z,3.83
2022-11-06T18:09:15.931Z,3.53
2022-11-06T18:11:42.592Z,3.47
2022-11-06T18:14:09.474Z,3.88
2022-11-06T18:16:42.314Z,4.30
2022-11-06T18:19:10.779Z,3.95
2022-11-06T18:21:37.171Z,4.25
2022-11-06T18:24:03.692Z,5.28
2022-11-06T18:26:30.156Z,4.35
2022-11-06T18:28:59.701Z,5.00
2022-11-06T18:31:26.072Z,4.15
2022-11-06T18:33:52.403Z,4.65
2022-11-06T18:36:18.893Z,4.45
2022-11-06T18:38:45.352Z,4.00
2022-11-06T18:41:13.364Z,4.88
2022-11-06T18:43:39.926Z,4.03
2022-11-06T18:46:09.350Z,5.30
2022-11-06T18:48:36.113Z,4.15
2022-11-06T18:51:06.564Z,5.10
2022-11-06T18:53:33.069Z,5.47
2022-11-06T18:55:59.641Z,4.53
2022-11-06T18:58:26.111Z,4.43
2022-11-06T19:00:54.374Z,4.45
2022-11-06T19:03:23.941Z,5.82
2022-11-06T19:05:53.892Z,4.45
2022-11-06T19:08:20.426Z,5.00
2022-11-06T19:10:46.833Z,6.80
2022-11-06T19:13:13.271Z,5.53
2022-11-06T19:15:39.921Z,4.72
2022-11-06T19:18:06.464Z,4.47
2022-11-06T19:20:32.818Z,6.25
2022-11-06T19:22:59.247Z,6.95
2022-11-06T19:25:25.853Z,5.50
2022-11-06T19:27:53.533Z,5.50
2022-11-06T19:30:19.867Z,6.00
2022-11-06T19:32:46.196Z,5.80
2022-11-06T19:35:15.925Z,5.60
2022-11-06T19:37:45.132Z,4.78
2022-11-06T19:40:11.537Z,6.45
2022-11-06T19:42:38.118Z,5.88
2022-11-06T19:45:05.606Z,7.07
2022-11-06T19:47:34.714Z,6.10
2022-11-06T19:50:01.137Z,5.68
2022-11-06T19:52:42.192Z,6.85
2022-11-06T19:55:25.925Z,6.57
2022-11-06T19:57:53.586Z,5.90
2022-11-06T20:00:20.033Z,6.53
2022-11-06T20:02:48.792Z,6.40
2022-11-06T20:05:15.302Z,7.35
2022-11-06T20:07:42.539Z,6.50
2022-11-06T20:10:09.035Z,6.38
2022-11-06T20:12:35.436Z,6.50
2022-11-06T20:15:01.921Z,6.60
2022-11-06T20:17:28.416Z,6.65
2022-11-06T20:19:54.782Z,6.25
2022-11-06T20:22:21.221Z,7.22
2022-11-06T20:24:47.616Z,6.60
2022-11-06T20:27:14.008Z,6.30
2022-11-06T20:29:40.521Z,6.28
2022-11-06T20:32:08.618Z,6.90
2022-11-06T20:34:35.064Z,6.88
2022-11-06T20:37:01.615Z,6.88
2022-11-06T20:39:28.316Z,7.47
2022-11-06T20:41:55.182Z,7.00
2022-11-06T20:44:21.526Z,7.15
2022-11-06T20:46:48.119Z,7.85
2022-11-06T20:49:14.824Z,8.52
2022-11-06T20:52:11.670Z,7.63
2022-11-06T20:54:27.606Z,6.88
2022-11-06T20:56:54.008Z,7.45
2022-11-06T20:59:22.766Z,6.35
2022-11-06T21:01:49.307Z,6.10
2022-11-06T21:04:16.303Z,6.60
2022-11-06T21:06:42.729Z,5.93
2022-11-06T21:09:09.799Z,6.45
2022-11-06T21:11:36.289Z,6.38
2022-11-06T21:14:02.643Z,5.63
2022-11-06T21:16:30.802Z,4.72
2022-11-06T21:18:58.178Z,5.20
2022-11-06T21:21:25.574Z,4.60
2022-11-06T21:23:52.389Z,4.05
2022-11-06T21:26:20.193Z,4.32
2022-11-06T21:28:46.561Z,3.97
2022-11-06T21:31:14.542Z,3.72
2022-11-06T21:33:41.788Z,3.15
2022-11-06T21:36:09.599Z,2.85
2022-11-06T21:38:35.989Z,3.35
2022-11-06T21:41:06.416Z,2.70
2022-11-06T21:43:32.901Z,2.58
2022-11-06T21:46:06.035Z,2.78
2022-11-06T21:48:45.746Z,2.40
2022-11-06T21:51:14.491Z,2.55
2022-11-06T21:53:59.556Z,2.05
2022-11-06T21:56:26.671Z,1.70
2022-11-06T21:58:56.601Z,1.83
2022-11-06T22:01:23.365Z,1.80
2022-11-06T22:03:52.777Z,1.75
2022-11-06T22:06:20.884Z,1.50
2022-11-06T22:08:48.052Z,1.40
2022-11-06T22:11:16.271Z,1.50
2022-11-06T22:13:42.996Z,1.17
2022-11-06T22:16:10.155Z,1.20
2022-11-06T22:18:36.539Z,1.10
2022-11-06T22:21:10.335Z,1.10
2022-11-06T22:23:36.787Z,1.20
2022-11-06T22:26:06.824Z,0.82
2022-11-06T22:28:33.670Z,0.87
2022-11-06T22:31:00.957Z,1.30
2022-11-06T22:33:27.784Z,1.10
2022-11-06T22:36:00.195Z,1.25
2022-11-06T22:38:26.636Z,0.82
2022-11-06T22:40:53.666Z,0.80
2022-11-06T22:43:22.657Z,0.85
2022-11-06T22:45:49.281Z,1.10
2022-11-06T22:48:19.267Z,1.40
2022-11-06T22:50:45.625Z,1.70
2022-11-06T22:53:15.015Z,1.70
2022-11-06T22:55:41.751Z,1.90
2022-11-06T22:58:08.227Z,2.83
2022-11-06T23:00:34.700Z,3.20
2022-11-06T23:03:01.258Z,3.20
2022-11-06T23:05:30.831Z,3.33
2022-11-06T23:07:57.307Z,3.40
2022-11-06T23:10:29.672Z,4.05
2022-11-06T23:12:57.415Z,4.00
2022-11-06T23:15:24.918Z,4.18
2022-11-06T23:17:51.925Z,4.78
2022-11-06T23:20:19.017Z,5.18
2022-11-06T23:22:45.879Z,5.35
2022-11-06T23:25:13.309Z,5.03
2022-11-06T23:27:44.319Z,5.30
2022-11-06T23:30:16.160Z,5.05
2022-11-06T23:32:42.620Z,5.70
2022-11-06T23:35:13.289Z,5.32
2022-11-06T23:37:41.169Z,6.35
2022-11-06T23:40:09.215Z,6.05
2022-11-06T23:42:35.635Z,5.60
2022-11-06T23:45:20.717Z,6.18
2022-11-06T23:47:50.276Z,6.00
2022-11-06T23:50:17.478Z,5.28
2022-11-06T23:52:47.020Z,5.30
2022-11-06T23:55:13.674Z,5.68
2022-11-06T23:57:40.158Z,5.07
